sensor_id;sensor_type;location;lat;lon;timestamp;P1;durP1;ratioP1;P2;durP2;ratioP2
12519;SDS011;6325;49.540;8.364;2023-02-01T00:02:14;4.33;;;2.93;;
12519;SDS011;6325;49.540;8.364;2023-02-01T00:04:41;2.08;;;1.77;;
12519;SDS011;6325;49.540;8.364;2023-02-01T00:07:08;3.13;;;2.15;;
12519;SDS011;6325;49.540;8.364;2023-02-01T00:09:35;1.80;;;1.70;;
12519;SDS011;6325;49.540;8.364;2023-02-01T00:12:02;1.67;;;1.58;;
12519;SDS011;6325;49.540;8.364;2023-02-01T00:14:30;2.00;;;1.90;;
12519;SDS011;6325;49.540;8.364;2023-02-01T00:17:03;2.30;;;2.10;;
12519;SDS011;6325;49.540;8.364;2023-02-01T00:19:31;3.50;;;2.40;;
12519;SDS011;6325;49.540;8.364;2023-02-01T00:22:01;2.50;;;2.17;;
12519;SDS011;6325;49.540;8.364;2023-02-01T00:24:28;2.92;;;2.30;;
12519;SDS011;6325;49.540;8.364;2023-02-01T00:26:55;2.22;;;1.90;;
12519;SDS011;6325;49.540;8.364;2023-02-01T00:29:21;2.53;;;2.30;;
12519;SDS011;6325;49.540;8.364;2023-02-01T00:31:50;1.80;;;1.70;;
12519;SDS011;6325;49.540;8.364;2023-02-01T00:34:18;1.60;;;1.50;;
12519;SDS011;6325;49.540;8.364;2023-02-01T00:36:45;1.80;;;1.70;;
12519;SDS011;6325;49.540;8.364;2023-02-01T00:39:12;1.80;;;1.70;;
12519;SDS011;6325;49.540;8.364;2023-02-01T00:41:40;1.70;;;1.60;;
12519;SDS011;6325;49.540;8.364;2023-02-01T00:44:06;2.40;;;1.80;;
12519;SDS011;6325;49.540;8.364;2023-02-01T00:46:33;2.38;;;1.90;;
12519;SDS011;6325;49.540;8.364;2023-02-01T00:49:02;2.03;;;1.83;;
12519;SDS011;6325;49.540;8.364;2023-02-01T00:51:29;2.03;;;1.93;;
12519;SDS011;6325;49.540;8.364;2023-02-01T00:53:59;1.90;;;1.80;;
12519;SDS011;6325;49.540;8.364;2023-02-01T00:56:26;2.70;;;2.30;;
12519;SDS011;6325;49.540;8.364;2023-02-01T00:58:53;2.28;;;2.08;;
12519;SDS011;6325;49.540;8.364;2023-02-01T01:01:21;1.85;;;1.75;;
12519;SDS011;6325;49.540;8.364;2023-02-01T01:03:50;1.97;;;1.87;;
12519;SDS011;6325;49.540;8.364;2023-02-01T01:06:20;2.00;;;1.90;;
12519;SDS011;6325;49.540;8.364;2023-02-01T01:08:50;1.90;;;1.80;;
12519;SDS011;6325;49.540;8.364;2023-02-01T01:11:18;2.85;;;2.20;;
12519;SDS011;6325;49.540;8.364;2023-02-01T01:13:46;2.10;;;1.83;;
12519;SDS011;6325;49.540;8.364;2023-02-01T01:16:13;1.80;;;1.70;;
12519;SDS011;6325;49.540;8.364;2023-02-01T01:18:41;3.75;;;3.00;;
12519;SDS011;6325;49.540;8.364;2023-02-01T01:21:08;1.92;;;1.75;;
12519;SDS011;6325;49.540;8.364;2023-02-01T01:23:39;2.65;;;2.35;;
12519;SDS011;6325;49.540;8.364;2023-02-01T01:26:06;4.83;;;3.50;;
12519;SDS011;6325;49.540;8.364;2023-02-01T01:28:37;4.80;;;3.03;;
12519;SDS011;6325;49.540;8.364;2023-02-01T01:31:03;3.22;;;2.15;;
12519;SDS011;6325;49.540;8.364;2023-02-01T01:33:34;2.25;;;2.08;;
12519;SDS011;6325;49.540;8.364;2023-02-01T01:36:01;2.33;;;2.13;;
12519;SDS011;6325;49.540;8.364;2023-02-01T01:38:30;2.40;;;2.20;;
12519;SDS011;6325;49.540;8.364;2023-02-01T01:40:58;2.00;;;1.90;;
12519;SDS011;6325;49.540;8.364;2023-02-01T01:43:25;1.95;;;1.80;;
12519;SDS011;6325;49.540;8.364;2023-02-01T01:46:14;2.35;;;2.10;;
12519;SDS011;6325;49.540;8.364;2023-02-01T01:48:42;2.00;;;1.80;;
12519;SDS011;6325;49.540;8.364;2023-02-01T01:51:10;2.97;;;2.40;;
12519;SDS011;6325;49.540;8.364;2023-02-01T01:53:42;2.50;;;2.30;;
12519;SDS011;6325;49.540;8.364;2023-02-01T01:56:12;2.30;;;2.10;;
12519;SDS011;6325;49.540;8.364;2023-02-01T01:58:40;2.38;;;2.20;;
12519;SDS011;6325;49.540;8.364;2023-02-01T02:01:08;3.55;;;2.30;;
12519;SDS011;6325;49.540;8.364;2023-02-01T02:03:38;2.95;;;2.50;;
12519;SDS011;6325;49.540;8.364;2023-02-01T02:06:10;1.90;;;1.80;;
12519;SDS011;6325;49.540;8.364;2023-02-01T02:08:41;1.95;;;1.85;;
12519;SDS011;6325;49.540;8.364;2023-02-01T02:11:08;1.80;;;1.70;;
12519;SDS011;6325;49.540;8.364;2023-02-01T02:13:39;2.13;;;1.85;;
12519;SDS011;6325;49.540;8.364;2023-02-01T02:16:13;1.90;;;1.80;;
12519;SDS011;6325;49.540;8.364;2023-02-01T02:18:53;1.88;;;1.77;;
12519;SDS011;6325;49.540;8.364;2023-02-01T02:21:41;1.83;;;1.73;;
12519;SDS011;6325;49.540;8.364;2023-02-01T02:24:31;1.70;;;1.60;;
12519;SDS011;6325;49.540;8.364;2023-02-01T02:27:14;1.88;;;1.77;;
12519;SDS011;6325;49.540;8.364;2023-02-01T02:30:02;1.85;;;1.75;;
12519;SDS011;6325;49.540;8.364;2023-02-01T02:32:54;2.08;;;1.95;;
12519;SDS011;6325;49.540;8.364;2023-02-01T02:35:36;1.80;;;1.70;;
12519;SDS011;6325;49.540;8.364;2023-02-01T02:38:12;2.03;;;1.90;;
12519;SDS011;6325;49.540;8.364;2023-02-01T02:40:45;2.40;;;1.80;;
12519;SDS011;6325;49.540;8.364;2023-02-01T02:43:20;1.80;;;1.70;;
12519;SDS011;6325;49.540;8.364;2023-02-01T02:46:06;1.97;;;1.87;;
12519;SDS011;6325;49.540;8.364;2023-02-01T02:48:54;1.95;;;1.80;;
12519;SDS011;6325;49.540;8.364;2023-02-01T02:51:30;2.35;;;1.90;;
12519;SDS011;6325;49.540;8.364;2023-02-01T02:54:20;2.07;;;1.97;;
12519;SDS011;6325;49.540;8.364;2023-02-01T02:57:07;1.92;;;1.83;;
12519;SDS011;6325;49.540;8.364;2023-02-01T02:59:54;2.10;;;2.00;;
12519;SDS011;6325;49.540;8.364;2023-02-01T03:02:41;1.98;;;1.88;;
12519;SDS011;6325;49.540;8.364;2023-02-01T03:05:31;2.10;;;2.00;;
12519;SDS011;6325;49.540;8.364;2023-02-01T03:08:04;2.10;;;2.00;;
12519;SDS011;6325;49.540;8.364;2023-02-01T03:10:48;2.20;;;2.10;;
12519;SDS011;6325;49.540;8.364;2023-02-01T03:13:27;2.20;;;2.10;;
12519;SDS011;6325;49.540;8.364;2023-02-01T03:15:59;2.00;;;1.90;;
12519;SDS011;6325;49.540;8.364;2023-02-01T03:18:32;2.47;;;2.28;;
12519;SDS011;6325;49.540;8.364;2023-02-01T03:21:04;2.00;;;1.90;;
12519;SDS011;6325;49.540;8.364;2023-02-01T03:23:37;1.97;;;1.87;;
12519;SDS011;6325;49.540;8.364;2023-02-01T03:26:06;1.90;;;1.80;;
12519;SDS011;6325;49.540;8.364;2023-02-01T03:28:35;1.92;;;1.80;;
12519;SDS011;6325;49.540;8.364;2023-02-01T03:31:06;1.90;;;1.80;;
12519;SDS011;6325;49.540;8.364;2023-02-01T03:33:33;2.03;;;1.88;;
12519;SDS011;6325;49.540;8.364;2023-02-01T03:36:12;1.70;;;1.60;;
12519;SDS011;6325;49.540;8.364;2023-02-01T03:38:46;2.00;;;1.90;;
12519;SDS011;6325;49.540;8.364;2023-02-01T03:41:17;1.80;;;1.70;;
12519;SDS011;6325;49.540;8.364;2023-02-01T03:43:51;1.80;;;1.70;;
12519;SDS011;6325;49.540;8.364;2023-02-01T03:46:22;1.83;;;1.73;;
12519;SDS011;6325;49.540;8.364;2023-02-01T03:48:57;1.83;;;1.70;;
12519;SDS011;6325;49.540;8.364;2023-02-01T03:51:29;1.90;;;1.80;;
12519;SDS011;6325;49.540;8.364;2023-02-01T03:53:58;2.10;;;2.00;;
12519;SDS011;6325;49.540;8.364;2023-02-01T03:56:28;2.08;;;1.98;;
12519;SDS011;6325;49.540;8.364;2023-02-01T03:58:57;2.00;;;1.90;;
12519;SDS011;6325;49.540;8.364;2023-02-01T04:01:25;2.10;;;1.90;;
12519;SDS011;6325;49.540;8.364;2023-02-01T04:03:53;1.90;;;1.80;;
12519;SDS011;6325;49.540;8.364;2023-02-01T04:06:20;2.13;;;1.95;;
12519;SDS011;6325;49.540;8.364;2023-02-01T04:08:47;2.00;;;1.83;;
12519;SDS011;6325;49.540;8.364;2023-02-01T04:11:15;2.22;;;1.90;;
12519;SDS011;6325;49.540;8.364;2023-02-01T04:13:42;1.73;;;1.63;;
12519;SDS011;6325;49.540;8.364;2023-02-01T04:16:09;2.08;;;1.95;;
12519;SDS011;6325;49.540;8.364;2023-02-01T04:18:36;1.75;;;1.65;;
12519;SDS011;6325;49.540;8.364;2023-02-01T04:21:03;1.80;;;1.70;;
12519;SDS011;6325;49.540;8.364;2023-02-01T04:23:32;1.75;;;1.65;;
12519;SDS011;6325;49.540;8.364;2023-02-01T04:25:59;1.90;;;1.80;;
12519;SDS011;6325;49.540;8.364;2023-02-01T04:28:28;2.22;;;1.95;;
12519;SDS011;6325;49.540;8.364;2023-02-01T04:30:55;2.50;;;2.30;;
12519;SDS011;6325;49.540;8.364;2023-02-01T04:33:22;3.60;;;2.60;;
12519;SDS011;6325;49.540;8.364;2023-02-01T04:35:50;2.70;;;2.50;;
12519;SDS011;6325;49.540;8.364;2023-02-01T04:38:16;2.70;;;2.50;;
12519;SDS011;6325;49.540;8.364;2023-02-01T04:40:46;2.73;;;2.53;;
12519;SDS011;6325;49.540;8.364;2023-02-01T04:43:13;2.72;;;2.50;;
12519;SDS011;6325;49.540;8.364;2023-02-01T04:45:41;2.60;;;2.40;;
12519;SDS011;6325;49.540;8.364;2023-02-01T04:48:12;3.00;;;2.60;;
12519;SDS011;6325;49.540;8.364;2023-02-01T04:50:40;4.32;;;3.38;;
12519;SDS011;6325;49.540;8.364;2023-02-01T04:53:07;5.65;;;4.13;;
12519;SDS011;6325;49.540;8.364;2023-02-01T04:55:34;11.98;;;6.03;;
12519;SDS011;6325;49.540;8.364;2023-02-01T04:58:01;7.60;;;4.65;;
12519;SDS011;6325;49.540;8.364;2023-02-01T05:00:28;6.70;;;4.00;;
12519;SDS011;6325;49.540;8.364;2023-02-01T05:02:56;9.98;;;5.55;;
12519;SDS011;6325;49.540;8.364;2023-02-01T05:05:23;11.27;;;6.57;;
12519;SDS011;6325;49.540;8.364;2023-02-01T05:07:51;9.80;;;5.32;;
12519;SDS011;6325;49.540;8.364;2023-02-01T05:10:17;6.88;;;4.55;;
12519;SDS011;6325;49.540;8.364;2023-02-01T05:12:44;9.63;;;5.03;;
12519;SDS011;6325;49.540;8.364;2023-02-01T05:15:29;6.80;;;3.75;;
12519;SDS011;6325;49.540;8.364;2023-02-01T05:17:57;4.57;;;3.03;;
12519;SDS011;6325;49.540;8.364;2023-02-01T05:20:24;3.22;;;2.53;;
12519;SDS011;6325;49.540;8.364;2023-02-01T05:22:51;3.00;;;2.00;;
12519;SDS011;6325;49.540;8.364;2023-02-01T05:25:18;2.40;;;2.10;;
12519;SDS011;6325;49.540;8.364;2023-02-01T05:27:45;3.03;;;2.25;;
12519;SDS011;6325;49.540;8.364;2023-02-01T05:30:12;3.70;;;2.67;;
12519;SDS011;6325;49.540;8.364;2023-02-01T05:32:42;3.88;;;2.38;;
12519;SDS011;6325;49.540;8.364;2023-02-01T05:35:10;3.00;;;2.50;;
12519;SDS011;6325;49.540;8.364;2023-02-01T05:37:37;4.45;;;2.95;;
12519;SDS011;6325;49.540;8.364;2023-02-01T05:40:04;3.45;;;2.60;;
12519;SDS011;6325;49.540;8.364;2023-02-01T05:42:33;3.15;;;2.60;;
12519;SDS011;6325;49.540;8.364;2023-02-01T05:45:00;3.05;;;2.72;;
12519;SDS011;6325;49.540;8.364;2023-02-01T05:47:27;2.60;;;2.40;;
12519;SDS011;6325;49.540;8.364;2023-02-01T05:49:54;2.78;;;2.50;;
12519;SDS011;6325;49.540;8.364;2023-02-01T05:52:22;2.53;;;2.33;;
12519;SDS011;6325;49.540;8.364;2023-02-01T05:54:49;2.38;;;2.17;;
12519;SDS011;6325;49.540;8.364;2023-02-01T05:57:17;2.90;;;2.53;;
12519;SDS011;6325;49.540;8.364;2023-02-01T05:59:44;2.75;;;2.53;;
12519;SDS011;6325;49.540;8.364;2023-02-01T06:02:12;2.63;;;2.42;;
12519;SDS011;6325;49.540;8.364;2023-02-01T06:04:39;2.67;;;2.47;;
12519;SDS011;6325;49.540;8.364;2023-02-01T06:07:06;3.47;;;2.38;;
12519;SDS011;6325;49.540;8.364;2023-02-01T06:09:35;2.50;;;2.30;;
12519;SDS011;6325;49.540;8.364;2023-02-01T06:12:02;2.83;;;2.40;;
12519;SDS011;6325;49.540;8.364;2023-02-01T06:14:30;3.63;;;2.50;;
12519;SDS011;6325;49.540;8.364;2023-02-01T06:16:56;2.40;;;2.20;;
12519;SDS011;6325;49.540;8.364;2023-02-01T06:19:23;9.02;;;4.90;;
12519;SDS011;6325;49.540;8.364;2023-02-01T06:21:51;8.82;;;4.53;;
12519;SDS011;6325;49.540;8.364;2023-02-01T06:24:18;5.82;;;3.50;;
12519;SDS011;6325;49.540;8.364;2023-02-01T06:26:46;4.75;;;3.28;;
12519;SDS011;6325;49.540;8.364;2023-02-01T06:29:13;3.42;;;2.47;;
12519;SDS011;6325;49.540;8.364;2023-02-01T06:31:41;2.13;;;2.00;;
12519;SDS011;6325;49.540;8.364;2023-02-01T06:34:09;2.30;;;2.08;;
12519;SDS011;6325;49.540;8.364;2023-02-01T06:36:36;3.30;;;2.50;;
12519;SDS011;6325;49.540;8.364;2023-02-01T06:39:03;3.03;;;2.43;;
12519;SDS011;6325;49.540;8.364;2023-02-01T06:41:31;2.72;;;2.38;;
12519;SDS011;6325;49.540;8.364;2023-02-01T06:44:01;2.72;;;2.13;;
12519;SDS011;6325;49.540;8.364;2023-02-01T06:46:28;4.13;;;2.80;;
12519;SDS011;6325;49.540;8.364;2023-02-01T06:48:55;2.80;;;2.60;;
12519;SDS011;6325;49.540;8.364;2023-02-01T06:51:22;3.22;;;2.63;;
12519;SDS011;6325;49.540;8.364;2023-02-01T06:53:50;3.27;;;2.47;;
12519;SDS011;6325;49.540;8.364;2023-02-01T06:56:17;3.38;;;2.50;;
12519;SDS011;6325;49.540;8.364;2023-02-01T06:58:45;4.13;;;2.88;;
12519;SDS011;6325;49.540;8.364;2023-02-01T07:01:13;3.73;;;2.90;;
12519;SDS011;6325;49.540;8.364;2023-02-01T07:03:41;3.30;;;2.53;;
12519;SDS011;6325;49.540;8.364;2023-02-01T07:06:08;3.88;;;2.80;;
12519;SDS011;6325;49.540;8.364;2023-02-01T07:08:36;6.40;;;3.83;;
12519;SDS011;6325;49.540;8.364;2023-02-01T07:11:05;9.85;;;5.22;;
12519;SDS011;6325;49.540;8.364;2023-02-01T07:13:33;9.68;;;5.00;;
12519;SDS011;6325;49.540;8.364;2023-02-01T07:16:00;10.70;;;5.47;;
12519;SDS011;6325;49.540;8.364;2023-02-01T07:18:30;9.50;;;4.45;;
12519;SDS011;6325;49.540;8.364;2023-02-01T07:20:58;7.70;;;4.65;;
12519;SDS011;6325;49.540;8.364;2023-02-01T07:23:25;7.32;;;4.07;;
12519;SDS011;6325;49.540;8.364;2023-02-01T07:25:53;9.20;;;4.68;;
12519;SDS011;6325;49.540;8.364;2023-02-01T07:28:20;5.43;;;3.00;;
12519;SDS011;6325;49.540;8.364;2023-02-01T07:30:48;5.90;;;3.28;;
12519;SDS011;6325;49.540;8.364;2023-02-01T07:33:18;7.33;;;4.00;;
12519;SDS011;6325;49.540;8.364;2023-02-01T07:35:47;7.03;;;3.10;;
12519;SDS011;6325;49.540;8.364;2023-02-01T07:38:15;4.60;;;2.58;;
12519;SDS011;6325;49.540;8.364;2023-02-01T07:40:47;5.93;;;3.03;;
12519;SDS011;6325;49.540;8.364;2023-02-01T07:43:19;4.83;;;2.87;;
12519;SDS011;6325;49.540;8.364;2023-02-01T07:45:50;4.07;;;2.70;;
12519;SDS011;6325;49.540;8.364;2023-02-01T07:48:17;6.00;;;3.30;;
12519;SDS011;6325;49.540;8.364;2023-02-01T07:50:44;5.75;;;2.83;;
12519;SDS011;6325;49.540;8.364;2023-02-01T07:53:12;4.53;;;2.50;;
12519;SDS011;6325;49.540;8.364;2023-02-01T07:55:39;3.80;;;2.30;;
12519;SDS011;6325;49.540;8.364;2023-02-01T07:58:06;4.22;;;2.20;;
12519;SDS011;6325;49.540;8.364;2023-02-01T08:00:33;4.30;;;2.50;;
12519;SDS011;6325;49.540;8.364;2023-02-01T08:03:18;4.72;;;2.78;;
12519;SDS011;6325;49.540;8.364;2023-02-01T08:05:45;5.45;;;2.70;;
12519;SDS011;6325;49.540;8.364;2023-02-01T08:08:13;4.00;;;2.55;;
12519;SDS011;6325;49.540;8.364;2023-02-01T08:10:40;3.78;;;2.40;;
12519;SDS011;6325;49.540;8.364;2023-02-01T08:13:07;4.63;;;2.40;;
12519;SDS011;6325;49.540;8.364;2023-02-01T08:15:34;4.85;;;2.65;;
12519;SDS011;6325;49.540;8.364;2023-02-01T08:18:01;3.65;;;2.40;;
12519;SDS011;6325;49.540;8.364;2023-02-01T08:20:28;4.23;;;2.23;;
12519;SDS011;6325;49.540;8.364;2023-02-01T08:22:55;4.03;;;2.55;;
12519;SDS011;6325;49.540;8.364;2023-02-01T08:25:23;4.37;;;2.50;;
12519;SDS011;6325;49.540;8.364;2023-02-01T08:27:50;4.72;;;2.55;;
12519;SDS011;6325;49.540;8.364;2023-02-01T08:30:19;6.07;;;2.83;;
12519;SDS011;6325;49.540;8.364;2023-02-01T08:32:46;5.25;;;2.80;;
12519;SDS011;6325;49.540;8.364;2023-02-01T08:35:14;6.00;;;2.80;;
12519;SDS011;6325;49.540;8.364;2023-02-01T08:37:40;4.88;;;2.50;;
12519;SDS011;6325;49.540;8.364;2023-02-01T08:40:08;4.88;;;2.70;;
12519;SDS011;6325;49.540;8.364;2023-02-01T08:42:37;4.88;;;2.70;;
12519;SDS011;6325;49.540;8.364;2023-02-01T08:45:19;4.73;;;2.93;;
12519;SDS011;6325;49.540;8.364;2023-02-01T08:47:48;5.05;;;3.17;;
12519;SDS011;6325;49.540;8.364;2023-02-01T08:50:16;4.97;;;2.90;;
12519;SDS011;6325;49.540;8.364;2023-02-01T08:52:43;8.65;;;4.47;;
12519;SDS011;6325;49.540;8.364;2023-02-01T08:55:10;7.53;;;3.25;;
12519;SDS011;6325;49.540;8.364;2023-02-01T08:57:39;5.90;;;3.40;;
12519;SDS011;6325;49.540;8.364;2023-02-01T09:00:08;10.43;;;4.68;;
12519;SDS011;6325;49.540;8.364;2023-02-01T09:02:38;8.45;;;4.70;;
12519;SDS011;6325;49.540;8.364;2023-02-01T09:05:06;4.73;;;2.87;;
12519;SDS011;6325;49.540;8.364;2023-02-01T09:07:33;8.13;;;4.03;;
12519;SDS011;6325;49.540;8.364;2023-02-01T09:10:01;9.23;;;4.72;;
12519;SDS011;6325;49.540;8.364;2023-02-01T09:12:29;16.73;;;7.32;;
12519;SDS011;6325;49.540;8.364;2023-02-01T09:14:59;16.25;;;7.78;;
12519;SDS011;6325;49.540;8.364;2023-02-01T09:17:27;15.35;;;6.30;;
12519;SDS011;6325;49.540;8.364;2023-02-01T09:19:54;7.47;;;3.97;;
12519;SDS011;6325;49.540;8.364;2023-02-01T09:22:21;9.38;;;4.25;;
12519;SDS011;6325;49.540;8.364;2023-02-01T09:24:48;9.57;;;4.25;;
12519;SDS011;6325;49.540;8.364;2023-02-01T09:27:15;13.20;;;5.57;;
12519;SDS011;6325;49.540;8.364;2023-02-01T09:29:42;6.85;;;3.97;;
12519;SDS011;6325;49.540;8.364;2023-02-01T09:32:10;9.43;;;4.40;;
12519;SDS011;6325;49.540;8.364;2023-02-01T09:34:37;11.93;;;5.70;;
12519;SDS011;6325;49.540;8.364;2023-02-01T09:37:04;15.63;;;6.97;;
12519;SDS011;6325;49.540;8.364;2023-02-01T09:39:31;9.67;;;4.50;;
12519;SDS011;6325;49.540;8.364;2023-02-01T09:41:59;10.50;;;4.82;;
12519;SDS011;6325;49.540;8.364;2023-02-01T09:44:49;11.10;;;5.07;;
12519;SDS011;6325;49.540;8.364;2023-02-01T09:47:40;11.77;;;5.07;;
12519;SDS011;6325;49.540;8.364;2023-02-01T09:50:13;13.20;;;5.30;;
12519;SDS011;6325;49.540;8.364;2023-02-01T09:52:45;15.93;;;6.93;;
12519;SDS011;6325;49.540;8.364;2023-02-01T09:55:19;16.27;;;7.50;;
12519;SDS011;6325;49.540;8.364;2023-02-01T09:57:55;10.02;;;4.00;;
12519;SDS011;6325;49.540;8.364;2023-02-01T10:00:27;11.50;;;5.03;;
12519;SDS011;6325;49.540;8.364;2023-02-01T10:03:01;8.05;;;3.50;;
12519;SDS011;6325;49.540;8.364;2023-02-01T10:05:38;10.35;;;4.40;;
12519;SDS011;6325;49.540;8.364;2023-02-01T10:08:16;9.30;;;3.80;;
12519;SDS011;6325;49.540;8.364;2023-02-01T10:10:51;12.88;;;5.13;;
12519;SDS011;6325;49.540;8.364;2023-02-01T10:13:26;9.75;;;4.68;;
12519;SDS011;6325;49.540;8.364;2023-02-01T10:16:12;8.80;;;3.47;;
12519;SDS011;6325;49.540;8.364;2023-02-01T10:18:49;8.50;;;3.63;;
12519;SDS011;6325;49.540;8.364;2023-02-01T10:21:28;7.75;;;3.40;;
12519;SDS011;6325;49.540;8.364;2023-02-01T10:27:08;11.17;;;3.90;;
12519;SDS011;6325;49.540;8.364;2023-02-01T10:29:40;7.60;;;3.47;;
12519;SDS011;6325;49.540;8.364;2023-02-01T10:32:13;9.30;;;4.25;;
12519;SDS011;6325;49.540;8.364;2023-02-01T10:34:44;14.68;;;6.18;;
12519;SDS011;6325;49.540;8.364;2023-02-01T10:37:18;11.75;;;5.50;;
12519;SDS011;6325;49.540;8.364;2023-02-01T10:39:52;11.93;;;5.40;;
12519;SDS011;6325;49.540;8.364;2023-02-01T10:42:22;11.07;;;3.80;;
12519;SDS011;6325;49.540;8.364;2023-02-01T10:44:51;10.55;;;4.95;;
12519;SDS011;6325;49.540;8.364;2023-02-01T10:47:20;15.40;;;7.55;;
12519;SDS011;6325;49.540;8.364;2023-02-01T10:49:49;11.73;;;4.90;;
12519;SDS011;6325;49.540;8.364;2023-02-01T10:52:27;15.60;;;6.88;;
12519;SDS011;6325;49.540;8.364;2023-02-01T10:58:03;8.98;;;3.95;;
12519;SDS011;6325;49.540;8.364;2023-02-01T11:00:38;9.80;;;4.20;;
12519;SDS011;6325;49.540;8.364;2023-02-01T11:03:22;14.18;;;6.20;;
12519;SDS011;6325;49.540;8.364;2023-02-01T11:05:59;9.88;;;4.28;;
12519;SDS011;6325;49.540;8.364;2023-02-01T11:08:27;12.40;;;5.60;;
12519;SDS011;6325;49.540;8.364;2023-02-01T11:11:00;13.77;;;6.07;;
12519;SDS011;6325;49.540;8.364;2023-02-01T11:13:31;12.10;;;5.18;;
12519;SDS011;6325;49.540;8.364;2023-02-01T11:16:03;15.90;;;6.50;;
12519;SDS011;6325;49.540;8.364;2023-02-01T11:18:31;11.85;;;5.60;;
12519;SDS011;6325;49.540;8.364;2023-02-01T11:21:03;16.67;;;7.18;;
12519;SDS011;6325;49.540;8.364;2023-02-01T11:23:31;11.93;;;5.40;;
12519;SDS011;6325;49.540;8.364;2023-02-01T11:26:02;10.98;;;4.78;;
12519;SDS011;6325;49.540;8.364;2023-02-01T11:28:37;13.35;;;5.95;;
12519;SDS011;6325;49.540;8.364;2023-02-01T11:31:07;12.13;;;5.53;;
12519;SDS011;6325;49.540;8.364;2023-02-01T11:33:36;12.32;;;5.45;;
12519;SDS011;6325;49.540;8.364;2023-02-01T11:36:10;16.70;;;6.57;;
12519;SDS011;6325;49.540;8.364;2023-02-01T11:38:40;17.40;;;7.22;;
12519;SDS011;6325;49.540;8.364;2023-02-01T11:41:14;7.35;;;3.10;;
12519;SDS011;6325;49.540;8.364;2023-02-01T11:43:50;11.40;;;5.38;;
12519;SDS011;6325;49.540;8.364;2023-02-01T11:46:20;13.73;;;6.18;;
12519;SDS011;6325;49.540;8.364;2023-02-01T11:48:53;11.70;;;4.78;;
12519;SDS011;6325;49.540;8.364;2023-02-01T11:51:26;12.82;;;5.93;;
12519;SDS011;6325;49.540;8.364;2023-02-01T11:54:13;11.70;;;4.88;;
12519;SDS011;6325;49.540;8.364;2023-02-01T11:56:54;16.58;;;6.63;;
12519;SDS011;6325;49.540;8.364;2023-02-01T11:59:35;13.32;;;5.72;;
12519;SDS011;6325;49.540;8.364;2023-02-01T12:02:21;12.98;;;5.20;;
12519;SDS011;6325;49.540;8.364;2023-02-01T12:05:14;15.32;;;6.03;;
12519;SDS011;6325;49.540;8.364;2023-02-01T12:07:56;10.63;;;4.38;;
12519;SDS011;6325;49.540;8.364;2023-02-01T12:10:33;12.45;;;6.03;;
12519;SDS011;6325;49.540;8.364;2023-02-01T12:13:23;11.70;;;4.95;;
12519;SDS011;6325;49.540;8.364;2023-02-01T12:16:02;10.20;;;4.20;;
12519;SDS011;6325;49.540;8.364;2023-02-01T12:18:45;11.52;;;5.10;;
12519;SDS011;6325;49.540;8.364;2023-02-01T12:21:28;10.40;;;4.78;;
12519;SDS011;6325;49.540;8.364;2023-02-01T12:24:28;10.32;;;4.28;;
12519;SDS011;6325;49.540;8.364;2023-02-01T12:27:32;13.13;;;5.70;;
12519;SDS011;6325;49.540;8.364;2023-02-01T12:33:11;8.25;;;4.00;;
12519;SDS011;6325;49.540;8.364;2023-02-01T12:35:47;12.90;;;5.10;;
12519;SDS011;6325;49.540;8.364;2023-02-01T12:38:24;16.67;;;6.93;;
12519;SDS011;6325;49.540;8.364;2023-02-01T12:41:11;14.48;;;5.78;;
12519;SDS011;6325;49.540;8.364;2023-02-01T12:43:48;11.68;;;4.63;;
12519;SDS011;6325;49.540;8.364;2023-02-01T12:46:19;11.83;;;4.27;;
12519;SDS011;6325;49.540;8.364;2023-02-01T12:48:52;9.43;;;4.40;;
12519;SDS011;6325;49.540;8.364;2023-02-01T12:51:24;13.38;;;5.55;;
12519;SDS011;6325;49.540;8.364;2023-02-01T12:53:56;13.00;;;5.40;;
12519;SDS011;6325;49.540;8.364;2023-02-01T12:56:31;12.50;;;5.22;;
12519;SDS011;6325;49.540;8.364;2023-02-01T12:59:03;12.00;;;5.15;;
12519;SDS011;6325;49.540;8.364;2023-02-01T13:01:36;13.15;;;5.53;;
12519;SDS011;6325;49.540;8.364;2023-02-01T13:04:09;11.50;;;5.17;;
12519;SDS011;6325;49.540;8.364;2023-02-01T13:06:44;14.65;;;6.28;;
12519;SDS011;6325;49.540;8.364;2023-02-01T13:09:18;10.90;;;4.80;;
12519;SDS011;6325;49.540;8.364;2023-02-01T13:11:51;10.50;;;4.53;;
12519;SDS011;6325;49.540;8.364;2023-02-01T13:14:25;10.35;;;4.20;;
12519;SDS011;6325;49.540;8.364;2023-02-01T13:17:01;9.13;;;3.70;;
12519;SDS011;6325;49.540;8.364;2023-02-01T13:19:33;8.63;;;3.55;;
12519;SDS011;6325;49.540;8.364;2023-02-01T13:22:11;12.45;;;5.93;;
12519;SDS011;6325;49.540;8.364;2023-02-01T13:24:42;10.93;;;4.97;;
12519;SDS011;6325;49.540;8.364;2023-02-01T13:27:12;11.30;;;5.22;;
12519;SDS011;6325;49.540;8.364;2023-02-01T13:29:42;10.82;;;4.90;;
12519;SDS011;6325;49.540;8.364;2023-02-01T13:32:23;11.38;;;5.60;;
12519;SDS011;6325;49.540;8.364;2023-02-01T13:35:18;5.07;;;2.50;;
12519;SDS011;6325;49.540;8.364;2023-02-01T13:38:08;6.65;;;3.28;;
12519;SDS011;6325;49.540;8.364;2023-02-01T13:40:56;10.50;;;4.40;;
12519;SDS011;6325;49.540;8.364;2023-02-01T13:43:38;10.73;;;4.75;;
12519;SDS011;6325;49.540;8.364;2023-02-01T13:46:07;9.85;;;4.47;;
12519;SDS011;6325;49.540;8.364;2023-02-01T13:48:39;11.85;;;5.22;;
12519;SDS011;6325;49.540;8.364;2023-02-01T13:51:08;12.02;;;4.28;;
12519;SDS011;6325;49.540;8.364;2023-02-01T13:53:35;11.90;;;5.55;;
12519;SDS011;6325;49.540;8.364;2023-02-01T13:56:06;13.05;;;6.30;;
12519;SDS011;6325;49.540;8.364;2023-02-01T13:58:39;12.55;;;5.90;;
12519;SDS011;6325;49.540;8.364;2023-02-01T14:04:00;13.60;;;5.77;;
12519;SDS011;6325;49.540;8.364;2023-02-01T14:06:34;12.07;;;5.40;;
12519;SDS011;6325;49.540;8.364;2023-02-01T14:09:20;15.07;;;6.60;;
12519;SDS011;6325;49.540;8.364;2023-02-01T14:12:41;9.85;;;4.45;;
12519;SDS011;6325;49.540;8.364;2023-02-01T14:15:21;11.68;;;4.75;;
12519;SDS011;6325;49.540;8.364;2023-02-01T14:17:52;14.02;;;5.40;;
12519;SDS011;6325;49.540;8.364;2023-02-01T14:23:21;15.05;;;5.88;;
12519;SDS011;6325;49.540;8.364;2023-02-01T14:26:00;7.88;;;2.70;;
12519;SDS011;6325;49.540;8.364;2023-02-01T14:28:43;8.07;;;3.85;;
12519;SDS011;6325;49.540;8.364;2023-02-01T14:31:18;11.07;;;4.75;;
12519;SDS011;6325;49.540;8.364;2023-02-01T14:33:58;7.82;;;3.90;;
12519;SDS011;6325;49.540;8.364;2023-02-01T14:36:36;12.48;;;5.55;;
12519;SDS011;6325;49.540;8.364;2023-02-01T14:39:17;10.93;;;5.22;;
12519;SDS011;6325;49.540;8.364;2023-02-01T14:41:46;10.52;;;4.40;;
12519;SDS011;6325;49.540;8.364;2023-02-01T14:44:22;9.32;;;4.30;;
12519;SDS011;6325;49.540;8.364;2023-02-01T14:47:06;11.90;;;5.13;;
12519;SDS011;6325;49.540;8.364;2023-02-01T14:49:53;14.40;;;6.45;;
12519;SDS011;6325;49.540;8.364;2023-02-01T14:52:35;12.25;;;5.72;;
12519;SDS011;6325;49.540;8.364;2023-02-01T14:55:08;12.55;;;5.47;;
12519;SDS011;6325;49.540;8.364;2023-02-01T14:57:40;11.70;;;5.25;;
12519;SDS011;6325;49.540;8.364;2023-02-01T15:03:13;7.63;;;3.85;;
12519;SDS011;6325;49.540;8.364;2023-02-01T15:05:54;7.80;;;4.03;;
12519;SDS011;6325;49.540;8.364;2023-02-01T15:08:23;13.50;;;5.37;;
12519;SDS011;6325;49.540;8.364;2023-02-01T15:10:52;9.38;;;4.53;;
12519;SDS011;6325;49.540;8.364;2023-02-01T15:13:22;10.15;;;4.28;;
12519;SDS011;6325;49.540;8.364;2023-02-01T15:16:00;10.00;;;4.30;;
12519;SDS011;6325;49.540;8.364;2023-02-01T15:18:33;7.70;;;3.92;;
12519;SDS011;6325;49.540;8.364;2023-02-01T15:21:00;14.02;;;5.68;;
12519;SDS011;6325;49.540;8.364;2023-02-01T15:23:28;12.50;;;5.00;;
12519;SDS011;6325;49.540;8.364;2023-02-01T15:25:56;11.07;;;5.03;;
12519;SDS011;6325;49.540;8.364;2023-02-01T15:28:24;11.98;;;5.03;;
12519;SDS011;6325;49.540;8.364;2023-02-01T15:30:52;10.02;;;4.40;;
12519;SDS011;6325;49.540;8.364;2023-02-01T15:33:21;9.68;;;4.60;;
12519;SDS011;6325;49.540;8.364;2023-02-01T15:35:51;6.38;;;3.13;;
12519;SDS011;6325;49.540;8.364;2023-02-01T15:38:21;12.30;;;5.38;;
12519;SDS011;6325;49.540;8.364;2023-02-01T15:41:03;13.45;;;5.07;;
12519;SDS011;6325;49.540;8.364;2023-02-01T15:43:33;13.20;;;6.15;;
12519;SDS011;6325;49.540;8.364;2023-02-01T15:46:03;10.25;;;4.50;;